This is the latest recevied weather packets stored in our database for station/object EB1TR-13. If no packets are shown the sender has not sent any weather packets the latest 1 day(s).
| Time | Temp. | Humidity | Pressure | Rain* | Wind** | Luminosity | Snow |
|---|---|---|---|---|---|---|---|
| 1778098486 | 13.89° C | 86% | 1014 hPa | 0 mm | - | 0 W/m² | - |
| 1778092186 | 15.56° C | 79% | 1014 hPa | 0 mm | - | 0 W/m² | - |
| 1778087686 | 16.67° C | 77% | 1014 hPa | 0 mm | - | 0 W/m² | - |
| 1778086786 | 16.67° C | 78% | 1014 hPa | 0 mm | - | 0 W/m² | - |
| 1778084986 | 17.22° C | 74% | 1014 hPa | 0 mm | - | 0 W/m² | - |
| 1778084086 | 17.22° C | 73% | 1014 hPa | 0 mm | - | 0 W/m² | - |
| 1778076886 | 16.11° C | 75% | 1015 hPa | 0 mm | - | 0 W/m² | - |
| 1778075986 | 16.67° C | 75% | 1014 hPa | 0 mm | - | 0 W/m² | - |
| 1778075086 | 16.11° C | 77% | 1014 hPa | 0 mm | - | 0 W/m² | - |
| 1778066086 | 16.11° C | 74% | 1015 hPa | 0 mm | - | 0 W/m² | - |
| 1778063386 | 15.56° C | 72% | 1015 hPa | 0 mm | - | 0 W/m² | - |
| 1778062486 | 15.56° C | 73% | 1015 hPa | 0 mm | - | 0 W/m² | - |
| 1778060686 | 15.56° C | 75% | 1015 hPa | 0 mm | - | 0 W/m² | - |
| 1778058886 | 15° C | 77% | 1015 hPa | 0 mm | - | 0 W/m² | - |
| 1778057986 | 14.44° C | 78% | 1015 hPa | 0 mm | - | 0 W/m² | - |
| 1778057086 | 13.89° C | 80% | 1015 hPa | 0 mm | - | 0 W/m² | - |
| 1778055286 | 12.78° C | 85% | 1015 hPa | 0 mm | - | 0 W/m² | - |
| 1778050786 | 12.22° C | 85% | 1015 hPa | 0 mm | - | 0 W/m² | - |
| 1778048086 | 11.67° C | 89% | 1015 hPa | 0 mm | - | 0 W/m² | - |
| 1778046286 | 11.11° C | 90% | 1015 hPa | 0 mm | - | 0 W/m² | - |
| 1778045386 | 11.11° C | 90% | 1015 hPa | 0 mm | - | 0 W/m² | - |
| 1778043586 | 11.11° C | 91% | 1015 hPa | 0 mm | - | 0 W/m² | - |
| 1778042686 | 11.11° C | 92% | 1015 hPa | 0 mm | - | 0 W/m² | - |
| 1778041786 | 11.11° C | 92% | 1015 hPa | 0 mm | - | 0 W/m² | - |
| 1778040886 | 11.11° C | 92% | 1015 hPa | 0 mm | - | 0 W/m² | - |
* Rain latest hour (hover to see other rain measurements)
** Current wind speed in m/s (hover to see current wind gust speed)